Home > Products > Valid Products > TAF

000
FTUS44 KMRX 291734
TAFTYS
TAF
KTYS 291734Z 2918/3018 22006KT P6SM SCT070 BKN250
     FM292100 23012KT P6SM BKN050 BKN120
     FM300200 31010KT P6SM VCSH BKN040 BKN080
     FM300600 30007KT P6SM -SNRA BKN025
     FM301400 31010KT P6SM SCT025 BKN250=



000
FTUS44 KMRX 291734
TAFTRI
TAF
KTRI 291734Z 2918/3018 23004KT P6SM BKN060 BKN120
     FM292100 25008KT P6SM BKN045 BKN080
     FM300600 26009KT 4SM -RASN OVC030
     FM301500 27010KT P6SM BKN035=



000
FTUS44 KMRX 291734
TAFCHA
TAF
KCHA 291734Z 2918/3018 19009KT P6SM SCT120
     FM300100 34008KT P6SM BKN040 BKN080
     FM300400 34010KT P6SM VCSH SCT025 BKN040
     FM301000 35008KT P6SM SCT035 SCT250=



000
FTUS44 KMRX 291734
TAFCHA
TAF
KCHA 291734Z 2918/3018 19009KT P6SM SCT120
     FM300100 34008KT P6SM BKN040 BKN080
     FM300400 34010KT P6SM VCSH SCT025 BKN040
     FM301000 35008KT P6SM SCT035 SCT250=



000
FTUS44 KMRX 291734
TAFTRI
TAF
KTRI 291734Z 2918/3018 23004KT P6SM BKN060 BKN120
     FM292100 25008KT P6SM BKN045 BKN080
     FM300600 26009KT 4SM -RASN OVC030
     FM301500 27010KT P6SM BKN035=



000
FTUS44 KMRX 291734
TAFTYS
TAF
KTYS 291734Z 2918/3018 22006KT P6SM SCT070 BKN250
     FM292100 23012KT P6SM BKN050 BKN120
     FM300200 31010KT P6SM VCSH BKN040 BKN080
     FM300600 30007KT P6SM -SNRA BKN025
     FM301400 31010KT P6SM SCT025 BKN250=



000
FTUS44 KMRX 291702 AAA
TAFTRI
TAF AMD
KTRI 291702Z 2917/3012 23004KT P6SM -RA BKN060 BKN120
     FM292000 25008KT P6SM SCT050 BKN120
     FM300200 27007KT P6SM SCT040 BKN070
     FM300600 26009KT 5SM -RASN OVC035=



000
FTUS44 KMRX 291702 AAA
TAFTRI
TAF AMD
KTRI 291702Z 2917/3012 23004KT P6SM -RA BKN060 BKN120
     FM292000 25008KT P6SM SCT050 BKN120
     FM300200 27007KT P6SM SCT040 BKN070
     FM300600 26009KT 5SM -RASN OVC035=



000
FTUS44 KMRX 291530 AAA
TAFTYS
TAF AMD
KTYS 291530Z 2916/3012 22006KT P6SM -RA BKN070 BKN180
     FM292000 23012KT P6SM SCT050 BKN150
     FM300200 31010KT P6SM SCT050 BKN080
     FM300600 30007KT P6SM VCSH BKN040=



000
FTUS44 KMRX 291530 AAA
TAFTYS
TAF AMD
KTYS 291530Z 2916/3012 22006KT P6SM -RA BKN070 BKN180
     FM292000 23012KT P6SM SCT050 BKN150
     FM300200 31010KT P6SM SCT050 BKN080
     FM300600 30007KT P6SM VCSH BKN040=



000
FTUS44 KMRX 291132
TAFCHA
TAF
KCHA 291132Z 2912/3012 00000KT P6SM BKN250
     FM291400 18004KT P6SM SCT090 BKN120
     FM291500 19006KT P6SM -RA BKN050
     FM291900 21008KT P6SM SCT050 BKN150
     FM300100 34008KT P6SM SCT050 BKN080=



000
FTUS44 KMRX 291132
TAFTRI
TAF
KTRI 291132Z 2912/3012 00000KT P6SM SCT150 BKN250
     FM291500 00000KT P6SM SCT070 BKN120
     FM291700 23004KT P6SM VCSH BKN050
     FM292200 25008KT P6SM SCT050 BKN120
     FM300200 27007KT P6SM SCT040 BKN070
     FM300600 26009KT 5SM -RASN OVC035=



000
FTUS44 KMRX 291132
TAFTYS
TAF
KTYS 291132Z 2912/3012 VRB03KT P6SM BKN250
     FM291400 22004KT P6SM SCT080 BKN120
     FM291600 22009KT P6SM VCSH BKN050
     FM292000 23012KT P6SM SCT050 BKN150
     FM300200 31010KT P6SM SCT050 BKN080
     FM300600 30007KT P6SM VCSH BKN040=



000
FTUS44 KMRX 291132
TAFTRI
TAF
KTRI 291132Z 2912/3012 00000KT P6SM SCT150 BKN250
     FM291500 00000KT P6SM SCT070 BKN120
     FM291700 23004KT P6SM VCSH BKN050
     FM292200 25008KT P6SM SCT050 BKN120
     FM300200 27007KT P6SM SCT040 BKN070
     FM300600 26009KT 5SM -RASN OVC035=



000
FTUS44 KMRX 291132
TAFTYS
TAF
KTYS 291132Z 2912/3012 VRB03KT P6SM BKN250
     FM291400 22004KT P6SM SCT080 BKN120
     FM291600 22009KT P6SM VCSH BKN050
     FM292000 23012KT P6SM SCT050 BKN150
     FM300200 31010KT P6SM SCT050 BKN080
     FM300600 30007KT P6SM VCSH BKN040=



000
FTUS44 KMRX 291132
TAFCHA
TAF
KCHA 291132Z 2912/3012 00000KT P6SM BKN250
     FM291400 18004KT P6SM SCT090 BKN120
     FM291500 19006KT P6SM -RA BKN050
     FM291900 21008KT P6SM SCT050 BKN150
     FM300100 34008KT P6SM SCT050 BKN080=



000
FTUS44 KMRX 290528
TAFCHA
TAF
KCHA 290528Z 2906/3006 00000KT P6SM BKN250
     FM291300 18004KT P6SM SCT090 BKN150
     FM291600 19006KT P6SM VCSH BKN050
     FM292000 21008KT P6SM SCT050 BKN150
     FM300100 34008KT P6SM SCT050 BKN080=



000
FTUS44 KMRX 290528
TAFTRI
TAF
KTRI 290528Z 2906/3006 00000KT P6SM SCT150 BKN250
     FM291300 00000KT P6SM SCT070 BKN120
     FM291600 23004KT P6SM VCSH BKN050
     FM292000 25008KT P6SM SCT050 BKN120
     FM300200 27007KT P6SM SCT040 BKN070=



000
FTUS44 KMRX 290528
TAFTYS
TAF
KTYS 290528Z 2906/3006 VRB03KT P6SM BKN250
     FM291400 22004KT P6SM SCT080 BKN150
     FM291600 22009KT P6SM VCSH BKN050
     FM292100 23012KT P6SM SCT050 BKN150
     FM300200 31010KT P6SM SCT050 BKN080=



000
FTUS44 KMRX 290528
TAFCHA
TAF
KCHA 290528Z 2906/3006 00000KT P6SM BKN250
     FM291300 18004KT P6SM SCT090 BKN150
     FM291600 19006KT P6SM VCSH BKN050
     FM292000 21008KT P6SM SCT050 BKN150
     FM300100 34008KT P6SM SCT050 BKN080=



000
FTUS44 KMRX 290528
TAFTYS
TAF
KTYS 290528Z 2906/3006 VRB03KT P6SM BKN250
     FM291400 22004KT P6SM SCT080 BKN150
     FM291600 22009KT P6SM VCSH BKN050
     FM292100 23012KT P6SM SCT050 BKN150
     FM300200 31010KT P6SM SCT050 BKN080=



000
FTUS44 KMRX 290528
TAFTRI
TAF
KTRI 290528Z 2906/3006 00000KT P6SM SCT150 BKN250
     FM291300 00000KT P6SM SCT070 BKN120
     FM291600 23004KT P6SM VCSH BKN050
     FM292000 25008KT P6SM SCT050 BKN120
     FM300200 27007KT P6SM SCT040 BKN070=



000
FTUS44 KMRX 282330
TAFTRI
TAF
KTRI 282330Z 2900/2924 00000KT P6SM SCT120 SCT250
     FM291600 21004KT P6SM SCT070 BKN100
     FM292000 22008KT P6SM BKN070=



000
FTUS44 KMRX 282330
TAFTYS
TAF
KTYS 282330Z 2900/2924 00000KT P6SM SCT250
     FM291400 23004KT P6SM SCT150 BKN250
     FM291800 23009KT P6SM SCT050 BKN100
     FM292100 23012KT P6SM BKN045=



000
FTUS44 KMRX 282330
TAFCHA
TAF
KCHA 282330Z 2900/2924 00000KT P6SM SCT250
     FM291300 18004KT P6SM SCT150 BKN250
     FM291800 20006KT P6SM SCT070 BKN120
     FM292100 22008KT P6SM BKN050=



000
FTUS44 KMRX 282330
TAFCHA
TAF
KCHA 282330Z 2900/2924 00000KT P6SM SCT250
     FM291300 18004KT P6SM SCT150 BKN250
     FM291800 20006KT P6SM SCT070 BKN120
     FM292100 22008KT P6SM BKN050=



000
FTUS44 KMRX 282330
TAFTRI
TAF
KTRI 282330Z 2900/2924 00000KT P6SM SCT120 SCT250
     FM291600 21004KT P6SM SCT070 BKN100
     FM292000 22008KT P6SM BKN070=



000
FTUS44 KMRX 282330
TAFTYS
TAF
KTYS 282330Z 2900/2924 00000KT P6SM SCT250
     FM291400 23004KT P6SM SCT150 BKN250
     FM291800 23009KT P6SM SCT050 BKN100
     FM292100 23012KT P6SM BKN045=



000
FTUS44 KMRX 281725
TAFCHA
TAF
KCHA 281725Z 2818/2918 05005KT P6SM SKC
     FM290000 00000KT P6SM SKC
     FM291300 13004KT P6SM FEW120 BKN250=



000
FTUS44 KMRX 281725
TAFTRI
TAF
KTRI 281725Z 2818/2918 VRB03KT P6SM SCT250=



000
FTUS44 KMRX 281725
TAFTYS
TAF
KTYS 281725Z 2818/2918 03006KT P6SM SCT250
     FM290000 00000KT P6SM SKC
     FM291400 23005KT P6SM FEW150 BKN250=



000
FTUS44 KMRX 281725
TAFTRI
TAF
KTRI 281725Z 2818/2918 VRB03KT P6SM SCT250=



000
FTUS44 KMRX 281725
TAFTYS
TAF
KTYS 281725Z 2818/2918 03006KT P6SM SCT250
     FM290000 00000KT P6SM SKC
     FM291400 23005KT P6SM FEW150 BKN250=



000
FTUS44 KMRX 281725
TAFCHA
TAF
KCHA 281725Z 2818/2918 05005KT P6SM SKC
     FM290000 00000KT P6SM SKC
     FM291300 13004KT P6SM FEW120 BKN250=



000
FTUS44 KMRX 281144
TAFTRI
TAF
KTRI 281144Z 2812/2912 VRB03KT P6SM SCT250
     FM290000 00000KT P6SM SCT150=



000
FTUS44 KMRX 281144
TAFTYS
TAF
KTYS 281144Z 2812/2912 03006KT P6SM SCT200
     FM290000 00000KT P6SM SKC
     FM290900 00000KT P6SM FEW150 BKN250=



000
FTUS44 KMRX 281144
TAFCHA
TAF
KCHA 281144Z 2812/2912 02008KT P6SM OVC025
     FM281400 03007KT P6SM SCT250
     FM290000 00000KT P6SM SKC
     FM290900 00000KT P6SM FEW120 BKN250=



000
FTUS44 KMRX 281144
TAFTRI
TAF
KTRI 281144Z 2812/2912 VRB03KT P6SM SCT250
     FM290000 00000KT P6SM SCT150=



000
FTUS44 KMRX 281144
TAFTYS
TAF
KTYS 281144Z 2812/2912 03006KT P6SM SCT200
     FM290000 00000KT P6SM SKC
     FM290900 00000KT P6SM FEW150 BKN250=



000
FTUS44 KMRX 281144
TAFCHA
TAF
KCHA 281144Z 2812/2912 02008KT P6SM OVC025
     FM281400 03007KT P6SM SCT250
     FM290000 00000KT P6SM SKC
     FM290900 00000KT P6SM FEW120 BKN250=



000
FTUS44 KMRX 280700 AAA
TAFTYS
TAF AMD
KTYS 280700Z 2807/2906 03005KT P6SM SCT200
      TEMPO 2807/2809 BKN035
     FM290000 00000KT P6SM SKC=



000
FTUS44 KMRX 280700 AAA
TAFTYS
TAF AMD
KTYS 280700Z 2807/2906 03005KT P6SM SCT200
      TEMPO 2807/2809 BKN035
     FM290000 00000KT P6SM SKC=



000
FTUS44 KMRX 280700 AAA
TAFTYS
TAF AMD
KTYS 280700Z 2807/2906 03005KT P6SM SCT200
      TEMPO 2807/2809 BKN035
     FM290000 00000KT P6SM SKC=



000
FTUS44 KMRX 280530 AAA
TAFCHA
TAF AMD
KCHA 280530Z 2806/2906 01010KT P6SM OVC022
     FM281000 02004KT P6SM BKN025
     FM281300 03005KT P6SM SCT250
     FM290000 00000KT P6SM SKC=



000
FTUS44 KMRX 280530 AAA
TAFCHA
TAF AMD
KCHA 280530Z 2806/2906 01010KT P6SM OVC022
     FM281000 02004KT P6SM BKN025
     FM281300 03005KT P6SM SCT250
     FM290000 00000KT P6SM SKC=



000
FTUS44 KMRX 280530
TAFTRI
TAF
KTRI 280530Z 2806/2906 32006KT P6SM SCT150
     FM280800 28004KT P6SM BKN035
     FM281200 VRB03KT P6SM SCT250
     FM290000 00000KT P6SM SCT150=



000
FTUS44 KMRX 280530
TAFTRI
TAF
KTRI 280530Z 2806/2906 32006KT P6SM SCT150
     FM280800 28004KT P6SM BKN035
     FM281200 VRB03KT P6SM SCT250
     FM290000 00000KT P6SM SCT150=



000
FTUS44 KMRX 280530
TAFTYS
TAF
KTYS 280530Z 2806/2906 02007KT P6SM OVC027
     FM280800 02004KT P6SM BKN025
     FM281000 04003KT P6SM SCT250
     FM290000 00000KT P6SM SKC=



000
FTUS44 KMRX 280530
TAFCHA
TAF
KCHA 280530Z 2806/2906 33010KT P6SM OVC022
     FM281000 02004KT P6SM BKN025
     FM281300 03005KT P6SM SCT250
     FM290000 00000KT P6SM SKC=



000
FTUS44 KMRX 280530
TAFCHA
TAF
KCHA 280530Z 2806/2906 33010KT P6SM OVC022
     FM281000 02004KT P6SM BKN025
     FM281300 03005KT P6SM SCT250
     FM290000 00000KT P6SM SKC=



000
FTUS44 KMRX 280530
TAFTYS
TAF
KTYS 280530Z 2806/2906 02007KT P6SM OVC027
     FM280800 02004KT P6SM BKN025
     FM281000 04003KT P6SM SCT250
     FM290000 00000KT P6SM SKC=



000
FTUS44 KMRX 272330
TAFTRI
TAF
KTRI 272330Z 2800/2824 30006KT P6SM SCT035
     FM280600 33003KT P6SM SKC
     FM281200 VRB03KT P6SM SCT250=



000
FTUS44 KMRX 272330
TAFCHA
TAF
KCHA 272330Z 2800/2824 36008KT P6SM BKN025
     FM280300 02006KT P6SM BKN015
     FM280900 03004KT P6SM SCT015
     FM281400 03005KT P6SM SCT250=



000
FTUS44 KMRX 272330
TAFTYS
TAF
KTYS 272330Z 2800/2824 VRB02KT P6SM OVC020
     FM280400 00000KT P6SM BKN020
     FM280800 00000KT P6SM SCT020
     FM281400 04003KT P6SM SCT250=



000
FTUS44 KMRX 272330
TAFTYS
TAF
KTYS 272330Z 2800/2824 VRB02KT P6SM OVC020
     FM280400 00000KT P6SM BKN020
     FM280800 00000KT P6SM SCT020
     FM281400 04003KT P6SM SCT250=



000
FTUS44 KMRX 272330
TAFCHA
TAF
KCHA 272330Z 2800/2824 36008KT P6SM BKN025
     FM280300 02006KT P6SM BKN015
     FM280900 03004KT P6SM SCT015
     FM281400 03005KT P6SM SCT250=



000
FTUS44 KMRX 272330
TAFTRI
TAF
KTRI 272330Z 2800/2824 30006KT P6SM SCT035
     FM280600 33003KT P6SM SKC
     FM281200 VRB03KT P6SM SCT250=



000
FTUS44 KMRX 272146 AAB
TAFTYS
TAF AMD
KTYS 272146Z 2722/2818 36003KT P6SM OVC030
     FM280400 VRB03KT P6SM SCT035
     FM281200 VRB03KT P6SM SKC=



000
FTUS44 KMRX 272146 AAB
TAFTYS
TAF AMD
KTYS 272146Z 2722/2818 36003KT P6SM OVC030
     FM280400 VRB03KT P6SM SCT035
     FM281200 VRB03KT P6SM SKC=



000
FTUS44 KMRX 272145 AAA
TAFCHA
TAF AMD
KCHA 272145Z 2722/2818 36010KT P6SM BKN028 BKN035
     FM280300 02006KT P6SM BKN060
     FM280900 02004KT P6SM BKN250=



000
FTUS44 KMRX 272022 AAA
TAFTYS
TAF AMD
KTYS 272022Z 2720/2818 35006KT P6SM SCT020 OVC035
     FM280200 34006KT P6SM OVC030
     FM280600 VRB03KT P6SM SCT035
     FM281200 VRB03KT P6SM SKC=



000
FTUS44 KMRX 272022 AAA
TAFTYS
TAF AMD
KTYS 272022Z 2720/2818 35006KT P6SM SCT020 OVC035
     FM280200 34006KT P6SM OVC030
     FM280600 VRB03KT P6SM SCT035
     FM281200 VRB03KT P6SM SKC=



000
FTUS44 KMRX 271735
TAFCHA
TAF
KCHA 271735Z 2718/2818 36010KT P6SM SCT025 BKN035 BKN080
      TEMPO 2718/2720 BKN025
     FM272100 35010KT P6SM BKN035
     FM280600 02006KT P6SM BKN060
     FM280900 02004KT P6SM BKN250=



000
FTUS44 KMRX 271735
TAFTRI
TAF
KTRI 271735Z 2718/2818 32008KT P6SM BKN025 OVC035
      TEMPO 2718/2721 SCT025 OVC035
     FM272100 29008KT P6SM BKN050
     FM280300 29006KT P6SM SCT035
     FM280900 31003KT P6SM BKN050
     FM281200 VRB03KT P6SM SCT250=



000
FTUS44 KMRX 271735
TAFTYS
TAF
KTYS 271735Z 2718/2818 32005KT P6SM SCT015 OVC025
      TEMPO 2718/2720 P6SM BKN015
     FM272000 35006KT P6SM OVC020
     FM280200 34006KT P6SM OVC030
     FM280600 VRB03KT P6SM SCT035
     FM281200 VRB03KT P6SM SKC=



000
FTUS44 KMRX 271735
TAFTYS
TAF
KTYS 271735Z 2718/2818 32005KT P6SM SCT015 OVC025
      TEMPO 2718/2720 P6SM BKN015
     FM272000 35006KT P6SM OVC020
     FM280200 34006KT P6SM OVC030
     FM280600 VRB03KT P6SM SCT035
     FM281200 VRB03KT P6SM SKC=



000
FTUS44 KMRX 271735
TAFTRI
TAF
KTRI 271735Z 2718/2818 32008KT P6SM BKN025 OVC035
      TEMPO 2718/2721 SCT025 OVC035
     FM272100 29008KT P6SM BKN050
     FM280300 29006KT P6SM SCT035
     FM280900 31003KT P6SM BKN050
     FM281200 VRB03KT P6SM SCT250=



000
FTUS44 KMRX 271735
TAFCHA
TAF
KCHA 271735Z 2718/2818 36010KT P6SM SCT025 BKN035 BKN080
      TEMPO 2718/2720 BKN025
     FM272100 35010KT P6SM BKN035
     FM280600 02006KT P6SM BKN060
     FM280900 02004KT P6SM BKN250=



000
FTUS44 KMRX 271704 AAB
TAFCHA
TAF AMD
KCHA 271704Z 2717/2812 36010KT P6SM OVC025
     FM272100 35010KT P6SM BKN035
     FM280600 02006KT P6SM BKN060
     FM280900 02004KT P6SM SKC=



000
FTUS44 KMRX 271704 AAB
TAFCHA
TAF AMD
KCHA 271704Z 2717/2812 36010KT P6SM OVC025
     FM272100 35010KT P6SM BKN035
     FM280600 02006KT P6SM BKN060
     FM280900 02004KT P6SM SKC=



000
FTUS44 KMRX 271702 AAA
TAFTRI
TAF AMD
KTRI 271702Z 2717/2812 32008KT P6SM BKN025 OVC035
      TEMPO 2717/2719 SCT025 OVC035
     FM272100 29008KT P6SM BKN040
     FM280200 29006KT P6SM SCT035=



000
FTUS44 KMRX 271702 AAA
TAFTRI
TAF AMD
KTRI 271702Z 2717/2812 32008KT P6SM BKN025 OVC035
      TEMPO 2717/2719 SCT025 OVC035
     FM272100 29008KT P6SM BKN040
     FM280200 29006KT P6SM SCT035=



000
FTUS44 KMRX 271700 AAB
TAFTYS
TAF AMD
KTYS 271700Z 2717/2812 VRB05KT P6SM -SHSN OVC020
      TEMPO 2717/2718 P6SM BKN010
     FM271800 35006KT P6SM OVC025
     FM272000 34008KT P6SM BKN040
     FM280200 36005KT P6SM SCT035=



000
FTUS44 KMRX 271700 AAB
TAFTYS
TAF AMD
KTYS 271700Z 2717/2812 VRB05KT P6SM -SHSN OVC020
      TEMPO 2717/2718 P6SM BKN010
     FM271800 35006KT P6SM OVC025
     FM272000 34008KT P6SM BKN040
     FM280200 36005KT P6SM SCT035=



000
FTUS44 KMRX 271441 AAA
TAFCHA
TAF AMD
KCHA 271441Z 2715/2812 VRB05KT P6SM OVC035
     FM271700 35010KT P6SM BKN040
     FM280100 36006KT P6SM SCT035=



000
FTUS44 KMRX 271440 AAA
TAFTYS
TAF AMD
KTYS 271440Z 2715/2812 29005KT P6SM OVC025
      TEMPO 2715/2716 3SM -SN BR BKN008 OVC025
     FM271600 35006KT P6SM OVC025
     FM271800 34008KT P6SM BKN040
     FM280200 36005KT P6SM SCT035=



000
FTUS44 KMRX 271440 AAA
TAFTYS
TAF AMD
KTYS 271440Z 2715/2812 29005KT P6SM OVC025
      TEMPO 2715/2716 3SM -SN BR BKN008 OVC025
     FM271600 35006KT P6SM OVC025
     FM271800 34008KT P6SM BKN040
     FM280200 36005KT P6SM SCT035=



000
FTUS44 KMRX 271135
TAFCHA
TAF
KCHA 271135Z 2712/2812 34005KT P6SM OVC025
      TEMPO 2712/2714 OVC035
     FM271700 35010KT P6SM BKN040
     FM280100 36006KT P6SM SCT035=



000
FTUS44 KMRX 271135
TAFTRI
TAF
KTRI 271135Z 2712/2812 27005KT P6SM OVC035
      TEMPO 2712/2715 -SHSN OVC025
     FM271700 29008KT P6SM BKN040
     FM280200 29006KT P6SM SCT035=



000
FTUS44 KMRX 271135
TAFTYS
TAF
KTYS 271135Z 2712/2812 24005KT P6SM -SHSN OVC015
      TEMPO 2712/2714 2SM -SN BR SCT005 OVC025
     FM271500 35006KT P6SM OVC025
     FM271800 34008KT P6SM BKN040
     FM280200 36005KT P6SM SCT035=



000
FTUS44 KMRX 271135
TAFCHA
TAF
KCHA 271135Z 2712/2812 34005KT P6SM OVC025
      TEMPO 2712/2714 OVC035
     FM271700 35010KT P6SM BKN040
     FM280100 36006KT P6SM SCT035=



000
FTUS44 KMRX 271135
TAFTRI
TAF
KTRI 271135Z 2712/2812 27005KT P6SM OVC035
      TEMPO 2712/2715 -SHSN OVC025
     FM271700 29008KT P6SM BKN040
     FM280200 29006KT P6SM SCT035=



000
FTUS44 KMRX 271135
TAFTYS
TAF
KTYS 271135Z 2712/2812 24005KT P6SM -SHSN OVC015
      TEMPO 2712/2714 2SM -SN BR SCT005 OVC025
     FM271500 35006KT P6SM OVC025
     FM271800 34008KT P6SM BKN040
     FM280200 36005KT P6SM SCT035=



000
FTUS44 KMRX 270530
TAFCHA
TAF
KCHA 270530Z 2706/2806 VRB02KT P6SM OVC040
     FM271000 34003KT P6SM OVC020
     FM271700 35010KT P6SM OVC040
     FM280100 36007KT P6SM BKN035=



000
FTUS44 KMRX 270530
TAFTYS
TAF
KTYS 270530Z 2706/2806 24005KT P6SM OVC035
      TEMPO 2706/2710 5SM -SHSN OVC025
     FM271000 24004KT P6SM -SHSN OVC015
     FM271500 35004KT P6SM OVC025
     FM271800 34008KT P6SM BKN040
     FM280200 35005KT P6SM SCT035=



000
FTUS44 KMRX 270530
TAFCHA
TAF
KCHA 270530Z 2706/2806 VRB02KT P6SM OVC040
     FM271000 34003KT P6SM OVC020
     FM271700 35010KT P6SM OVC040
     FM280100 36007KT P6SM BKN035=



000
FTUS44 KMRX 270530
TAFTYS
TAF
KTYS 270530Z 2706/2806 24005KT P6SM OVC035
      TEMPO 2706/2710 5SM -SHSN OVC025
     FM271000 24004KT P6SM -SHSN OVC015
     FM271500 35004KT P6SM OVC025
     FM271800 34008KT P6SM BKN040
     FM280200 35005KT P6SM SCT035=



000
FTUS44 KMRX 270530
TAFTRI
TAF
KTRI 270530Z 2706/2806 28007KT P6SM OVC020
     FM270900 27005KT P6SM -SHSN OVC015
     FM271500 29007KT P6SM OVC025
     FM271800 29008KT P6SM BKN040
     FM280200 29006KT P6SM SCT035=



000
FTUS44 KMRX 270530
TAFTRI
TAF
KTRI 270530Z 2706/2806 28007KT P6SM OVC020
     FM270900 27005KT P6SM -SHSN OVC015
     FM271500 29007KT P6SM OVC025
     FM271800 29008KT P6SM BKN040
     FM280200 29006KT P6SM SCT035=



000
FTUS44 KMRX 270206 AAA
TAFTYS
TAF AMD
KTYS 270206Z 2702/2724 28008KT P6SM BKN030
      TEMPO 2702/2704 2SM -SN BR OVC020
     FM270600 26004KT 4SM BR OVC015
     FM271500 35004KT P6SM BKN020
     FM272100 32005KT P6SM OVC050=



000
FTUS44 KMRX 270119 AAA
TAFCHA
TAF AMD
KCHA 270119Z 2701/2724 33007KT P6SM BKN035
      TEMPO 2701/2703 2SM -SN BR OVC050
     FM270600 32004KT P6SM SCT009 OVC020
     FM271000 34003KT P6SM OVC009
     FM271500 35010KT P6SM BKN015=



000
FTUS44 KMRX 262320
TAFTRI
TAF
KTRI 262320Z 2700/2724 28010KT P6SM OVC025
     FM270300 28005KT P6SM OVC015
     FM271500 27004KT P6SM OVC025
     FM272100 26007KT P6SM BKN150=



000
FTUS44 KMRX 262320
TAFTRI
TAF
KTRI 262320Z 2700/2724 28010KT P6SM OVC025
     FM270300 28005KT P6SM OVC015
     FM271500 27004KT P6SM OVC025
     FM272100 26007KT P6SM BKN150=



000
FTUS44 KMRX 262320
TAFCHA
TAF
KCHA 262320Z 2700/2724 32010KT P6SM BKN025
     FM270100 33007KT P6SM BKN035
     FM270600 32004KT P6SM SCT009 OVC020
     FM271000 34003KT P6SM OVC009
     FM271500 35010KT P6SM BKN015=



000
FTUS44 KMRX 262320
TAFTYS
TAF
KTYS 262320Z 2700/2724 28008KT P6SM BKN030
     FM270600 26004KT 4SM BR OVC015
     FM271500 35004KT P6SM BKN020
     FM272100 32005KT P6SM OVC050=



    US Dept of Commerce
    National Oceanic and Atmospheric Administration
    National Weather Service
    1325 East West Highway
    Silver Spring, MD 20910
    Page Author: NWS Internet Services Team
Disclaimer
Information Quality
Credits
Glossary
Privacy Policy
Freedom of Information Act (FOIA)
About Us
Career Opportunities